createdAt,value
2019-04-20T00:00:52.969Z,60.60
2019-04-20T00:03:26.022Z,59.10
2019-04-20T00:05:52.982Z,59.30
2019-04-20T00:08:27.379Z,59.40
2019-04-20T00:11:02.387Z,60.70
2019-04-20T00:13:36.663Z,61.00
2019-04-20T00:15:55.784Z,61.10
2019-04-20T00:18:32.923Z,61.70
2019-04-20T00:21:19.217Z,61.70
2019-04-20T00:23:52.750Z,61.90
2019-04-20T00:27:01.995Z,61.70
2019-04-20T00:29:22.714Z,60.80
2019-04-20T00:31:45.724Z,61.40
2019-04-20T00:34:13.157Z,61.40
2019-04-20T00:36:34.982Z,61.00
2019-04-20T00:39:09.290Z,60.80
2019-04-20T00:41:46.483Z,61.20
2019-04-20T00:44:13.280Z,61.70
2019-04-20T00:46:51.135Z,62.50
2019-04-20T00:49:25.444Z,62.20
2019-04-20T00:52:07.631Z,62.20
2019-04-20T00:54:13.773Z,62.60
2019-04-20T00:56:43.407Z,62.50
2019-04-20T00:59:25.140Z,63.20
2019-04-20T01:02:03.637Z,63.70
2019-04-20T01:04:37.839Z,63.90
2019-04-20T01:07:10.996Z,63.40
2019-04-20T01:09:45.462Z,65.00
2019-04-20T01:12:20.554Z,64.00
2019-04-20T01:14:52.074Z,63.80
2019-04-20T01:17:17.168Z,64.20
2019-04-20T01:19:48.827Z,63.10
2019-04-20T01:22:21.851Z,63.90
2019-04-20T01:24:48.709Z,65.30
2019-04-20T01:27:35.018Z,65.60
2019-04-20T01:30:02.284Z,65.90
2019-04-20T01:32:33.441Z,65.00
2019-04-20T01:35:02.359Z,63.50
2019-04-20T01:37:36.054Z,62.90
2019-04-20T01:39:58.618Z,62.70
2019-04-20T01:42:25.607Z,63.40
2019-04-20T01:44:56.948Z,65.20
2019-04-20T01:47:35.756Z,65.60
2019-04-20T01:50:03.561Z,66.40
2019-04-20T01:52:39.764Z,65.60
2019-04-20T01:55:25.657Z,66.10
2019-04-20T01:57:59.873Z,63.90
2019-04-20T02:00:35.223Z,63.70
2019-04-20T02:03:22.763Z,65.30
2019-04-20T02:05:57.818Z,64.30
2019-04-20T02:08:24.392Z,65.20
2019-04-20T02:10:55.883Z,65.90
2019-04-20T02:13:26.936Z,66.70
2019-04-20T02:15:57.833Z,66.70
2019-04-20T02:18:36.487Z,67.00
2019-04-20T02:21:16.360Z,67.00
2019-04-20T02:23:37.713Z,67.00
2019-04-20T02:25:58.797Z,68.20
2019-04-20T02:28:56.598Z,67.60
2019-04-20T02:34:10.212Z,67.00
2019-04-20T02:36:51.445Z,67.60
2019-04-20T02:39:34.207Z,66.40
2019-04-20T02:42:05.415Z,67.80
2019-04-20T02:47:04.667Z,67.60
2019-04-20T02:49:44.834Z,67.50
2019-04-20T02:52:02.677Z,67.30
2019-04-20T02:59:54.182Z,66.20
2019-04-20T03:01:51.729Z,67.00
2019-04-20T03:04:06.446Z,68.10
2019-04-20T03:06:48.381Z,68.40
2019-04-20T03:09:28.412Z,67.80
2019-04-20T03:14:21.738Z,68.20
2019-04-20T03:16:55.031Z,68.70
2019-04-20T03:19:25.084Z,67.80
2019-04-20T03:22:04.149Z,67.40
2019-04-20T03:24:38.778Z,67.40
2019-04-20T03:27:02.031Z,67.60
2019-04-20T03:29:58.937Z,68.30
2019-04-20T03:35:29.869Z,68.30
2019-04-20T03:37:44.110Z,67.90
2019-04-20T03:40:10.102Z,67.70
2019-04-20T03:42:24.777Z,68.50
2019-04-20T03:45:00.484Z,67.50
2019-04-20T03:47:36.899Z,67.60
2019-04-20T03:50:18.774Z,68.30
2019-04-20T03:53:04.155Z,68.50
2019-04-20T03:55:57.693Z,68.50
2019-04-20T03:58:40.106Z,68.20
2019-04-20T04:01:57.138Z,68.60
2019-04-20T04:04:12.143Z,68.40
2019-04-20T04:06:30.693Z,68.40
2019-04-20T04:09:02.558Z,68.60
2019-04-20T04:11:37.903Z,68.40
2019-04-20T04:13:52.543Z,68.40
2019-04-20T04:16:27.137Z,69.20
2019-04-20T04:19:01.401Z,68.80
2019-04-20T04:21:41.197Z,68.60
2019-04-20T04:24:09.547Z,69.30
2019-04-20T04:26:39.014Z,69.50
2019-04-20T04:29:22.738Z,70.20
2019-04-20T04:31:55.498Z,69.80
2019-04-20T04:34:20.647Z,69.30
2019-04-20T04:36:53.932Z,69.90
2019-04-20T04:39:26.398Z,69.90
2019-04-20T04:42:01.239Z,68.70
2019-04-20T04:44:14.739Z,68.50
2019-04-20T04:46:44.619Z,69.10
2019-04-20T04:49:15.552Z,69.90
2019-04-20T04:51:44.692Z,70.80
2019-04-20T04:54:16.481Z,71.00
2019-04-20T04:56:39.746Z,70.40
2019-04-20T04:59:09.097Z,70.10
2019-04-20T05:01:39.377Z,70.30
2019-04-20T05:04:24.824Z,69.90
2019-04-20T05:06:53.542Z,69.90
2019-04-20T05:09:15.442Z,69.50
2019-04-20T05:11:43.086Z,69.80
2019-04-20T05:14:19.325Z,69.30
2019-04-20T05:16:58.280Z,68.90
2019-04-20T05:19:36.472Z,69.50
2019-04-20T05:22:19.645Z,69.90
2019-04-20T05:24:57.134Z,70.50
2019-04-20T05:27:49.691Z,69.70
2019-04-20T05:29:57.074Z,70.00
2019-04-20T05:32:35.792Z,69.90
2019-04-20T05:35:25.478Z,70.20
2019-04-20T05:37:59.370Z,68.50
2019-04-20T05:40:21.913Z,68.90
2019-04-20T05:42:52.353Z,70.10
2019-04-20T05:45:20.613Z,70.50
2019-04-20T05:47:52.449Z,70.60
2019-04-20T05:50:27.439Z,70.40
2019-04-20T05:53:01.720Z,70.00
2019-04-20T05:55:35.436Z,69.40
2019-04-20T05:58:01.976Z,68.70
2019-04-20T06:00:45.883Z,66.10
2019-04-20T06:03:05.637Z,65.30
2019-04-20T06:05:45.898Z,65.70
2019-04-20T06:08:05.449Z,65.00
2019-04-20T06:10:38.208Z,62.90
2019-04-20T06:13:12.485Z,62.50
2019-04-20T06:15:46.355Z,62.10
2019-04-20T06:18:20.272Z,61.30
2019-04-20T06:20:52.561Z,58.90
2019-04-20T06:23:38.721Z,59.60
2019-04-20T06:26:19.472Z,60.20
2019-04-20T06:28:30.064Z,59.20
2019-04-20T06:30:57.869Z,58.90
2019-04-20T06:36:47.489Z,58.60
2019-04-20T06:39:31.164Z,58.60
2019-04-20T06:44:26.704Z,56.40
2019-04-20T06:46:53.721Z,56.30
2019-04-20T06:49:25.587Z,57.30
2019-04-20T06:51:55.612Z,56.10
2019-04-20T06:54:28.892Z,55.60
2019-04-20T06:57:07.319Z,55.90
2019-04-20T06:59:40.067Z,56.60
2019-04-20T07:02:11.169Z,57.00
2019-04-20T07:07:10.154Z,56.50
2019-04-20T07:09:46.181Z,55.80
2019-04-20T07:12:06.707Z,54.30
2019-04-20T07:14:34.032Z,48.00
2019-04-20T07:17:29.748Z,40.30
2019-04-20T07:20:00.260Z,36.30
2019-04-20T07:22:37.551Z,32.30
2019-04-20T07:25:14.382Z,32.30
2019-04-20T07:27:41.593Z,33.50
2019-04-20T07:30:12.326Z,38.60
2019-04-20T07:32:52.369Z,41.80
2019-04-20T07:35:14.191Z,41.10
2019-04-20T07:40:24.619Z,41.00
2019-04-20T07:42:56.443Z,41.20
2019-04-20T07:45:30.786Z,41.50
2019-04-20T07:48:01.348Z,41.70
2019-04-20T07:50:21.451Z,40.10
2019-04-20T07:52:51.410Z,41.30
2019-04-20T07:55:47.525Z,37.50
2019-04-20T07:57:58.064Z,36.20
2019-04-20T08:00:41.720Z,33.30
2019-04-20T08:03:28.410Z,34.30
2019-04-20T08:06:01.480Z,35.00
2019-04-20T08:08:40.701Z,34.30
2019-04-20T08:11:12.666Z,33.70
2019-04-20T08:13:52.651Z,33.00
2019-04-20T08:16:33.230Z,32.10
2019-04-20T08:18:49.903Z,32.30
2019-04-20T08:21:22.881Z,32.40
2019-04-20T08:23:54.039Z,32.60
2019-04-20T08:26:10.057Z,32.20
2019-04-20T08:28:45.812Z,33.10
2019-04-20T08:32:04.120Z,33.60
2019-04-20T08:34:43.135Z,33.30
2019-04-20T08:37:06.998Z,32.10
2019-04-20T08:42:12.437Z,32.90
2019-04-20T08:47:37.861Z,33.60
2019-04-20T08:50:17.149Z,32.30
2019-04-20T08:53:06.791Z,33.70
2019-04-20T08:55:12.272Z,32.80
2019-04-20T08:57:26.916Z,32.00
2019-04-20T09:00:00.537Z,32.70
2019-04-20T09:02:28.109Z,33.00
2019-04-20T09:05:03.415Z,32.80
2019-04-20T09:07:33.345Z,32.20
2019-04-20T09:10:25.361Z,32.70
2019-04-20T09:12:45.317Z,32.50
2019-04-20T09:15:01.722Z,31.20
2019-04-20T09:17:44.992Z,31.40
2019-04-20T09:20:17.449Z,31.50
2019-04-20T09:23:08.158Z,30.80
2019-04-20T09:25:53.407Z,32.00
2019-04-20T09:28:23.778Z,31.50
2019-04-20T09:30:54.412Z,31.90
2019-04-20T09:34:04.362Z,29.80
2019-04-20T09:36:42.065Z,30.20
2019-04-20T09:39:22.129Z,29.70
2019-04-20T09:42:07.503Z,29.70
2019-04-20T09:44:52.426Z,29.60
2019-04-20T09:47:28.330Z,30.00
2019-04-20T09:50:00.839Z,29.20
2019-04-20T09:52:33.422Z,29.80
2019-04-20T09:55:09.223Z,28.70
2019-04-20T09:57:38.051Z,28.00
2019-04-20T10:00:12.144Z,28.10
2019-04-20T10:02:30.898Z,29.30
2019-04-20T10:04:57.625Z,28.50
2019-04-20T10:07:32.554Z,28.60
2019-04-20T10:09:58.042Z,27.80
2019-04-20T10:12:27.328Z,28.50
2019-04-20T10:14:57.569Z,27.50
2019-04-20T10:17:31.358Z,27.70
2019-04-20T10:20:04.599Z,27.20
2019-04-20T10:22:30.879Z,27.70
2019-04-20T10:25:00.306Z,27.50
2019-04-20T10:27:30.699Z,28.70
2019-04-20T10:30:03.780Z,27.90
2019-04-20T10:32:38.895Z,27.80
2019-04-20T10:35:02.481Z,27.00
2019-04-20T10:37:37.664Z,26.50
2019-04-20T10:40:07.493Z,26.60
2019-04-20T10:42:38.198Z,26.70
2019-04-20T10:45:08.757Z,27.00
2019-04-20T10:47:38.973Z,26.90
2019-04-20T10:50:09.245Z,27.70
2019-04-20T10:52:38.518Z,27.00
2019-04-20T10:55:08.367Z,24.80
2019-04-20T10:57:37.756Z,25.60
2019-04-20T11:00:07.998Z,24.60
2019-04-20T11:02:37.445Z,25.00
2019-04-20T11:05:08.554Z,24.40
2019-04-20T11:07:38.789Z,24.60
2019-04-20T11:10:16.643Z,24.90
2019-04-20T11:12:40.183Z,25.80
2019-04-20T11:15:12.521Z,25.50
2019-04-20T11:17:41.761Z,25.30
2019-04-20T11:20:11.467Z,24.30
2019-04-20T11:22:40.652Z,24.50
2019-04-20T11:25:10.317Z,24.00
2019-04-20T11:27:40.487Z,23.30
2019-04-20T11:30:10.456Z,22.90
2019-04-20T11:32:40.178Z,22.70
2019-04-20T11:35:20.897Z,22.40
2019-04-20T11:37:40.921Z,22.90
2019-04-20T11:40:10.905Z,23.00
2019-04-20T11:42:41.630Z,23.70
2019-04-20T11:45:12.845Z,24.00
2019-04-20T11:47:43.407Z,23.20
2019-04-20T11:50:13.678Z,22.80
2019-04-20T11:52:47.541Z,23.30
2019-04-20T11:55:14.524Z,21.20
2019-04-20T11:57:45.143Z,20.60
2019-04-20T12:00:19.155Z,20.60
2019-04-20T12:03:16.021Z,21.20
2019-04-20T12:05:43.200Z,22.20
2019-04-20T12:08:09.381Z,21.90
2019-04-20T12:10:39.218Z,21.70
2019-04-20T12:13:09.824Z,21.50
2019-04-20T12:15:39.592Z,21.60
2019-04-20T12:18:09.573Z,22.00
2019-04-20T12:20:39.137Z,21.20
2019-04-20T12:23:08.589Z,20.40
2019-04-20T12:25:40.934Z,21.60
2019-04-20T12:28:09.573Z,21.30
2019-04-20T12:30:39.765Z,21.20
2019-04-20T12:33:09.473Z,20.70
2019-04-20T12:35:40.088Z,19.60
2019-04-20T12:38:10.512Z,20.30
2019-04-20T12:40:39.966Z,19.60
2019-04-20T12:43:10.984Z,18.00
2019-04-20T12:45:40.277Z,18.50
2019-04-20T12:48:09.450Z,18.60
2019-04-20T12:50:39.583Z,18.30
2019-04-20T12:53:08.883Z,19.10
2019-04-20T12:55:38.914Z,20.10
2019-04-20T12:58:08.342Z,18.70
2019-04-20T13:00:56.333Z,19.80
2019-04-20T13:03:25.780Z,19.60
2019-04-20T13:05:56.147Z,19.30
2019-04-20T13:08:33.673Z,19.80
2019-04-20T13:11:00.497Z,19.30
2019-04-20T13:13:48.293Z,20.20
2019-04-20T13:16:22.690Z,18.70
2019-04-20T13:18:55.268Z,20.60
2019-04-20T13:21:25.068Z,20.30
2019-04-20T13:23:55.316Z,19.20
2019-04-20T13:26:27.020Z,18.70
2019-04-20T13:28:57.128Z,18.40
2019-04-20T13:31:26.530Z,18.80
2019-04-20T13:33:57.024Z,17.90
2019-04-20T13:36:26.553Z,17.20
2019-04-20T13:38:56.393Z,19.40
2019-04-20T13:41:25.949Z,19.40
2019-04-20T13:43:57.822Z,19.30
2019-04-20T13:46:27.136Z,19.00
2019-04-20T13:48:58.120Z,17.60
2019-04-20T13:51:28.607Z,18.40
2019-04-20T13:53:58.190Z,19.90
2019-04-20T13:56:30.030Z,19.30
2019-04-20T13:59:03.805Z,17.60
2019-04-20T14:02:07.177Z,18.80
2019-04-20T14:04:48.743Z,18.10
2019-04-20T14:07:19.136Z,18.40
2019-04-20T14:09:49.316Z,18.80
2019-04-20T14:12:25.186Z,17.70
2019-04-20T14:14:49.436Z,18.30
2019-04-20T14:17:19.181Z,20.00
2019-04-20T14:19:49.231Z,19.10
2019-04-20T14:22:20.814Z,18.60
2019-04-20T14:24:51.090Z,18.00
2019-04-20T14:27:21.300Z,18.60
2019-04-20T14:29:50.907Z,18.00
2019-04-20T14:32:20.989Z,17.70
2019-04-20T14:34:51.210Z,18.20
2019-04-20T14:37:20.817Z,17.50
2019-04-20T14:39:50.379Z,18.40
2019-04-20T14:42:33.940Z,17.40
2019-04-20T14:44:51.984Z,17.30
2019-04-20T14:47:21.744Z,18.10
2019-04-20T14:49:52.601Z,16.60
2019-04-20T14:52:21.977Z,16.50
2019-04-20T14:54:51.596Z,17.20
2019-04-20T14:57:21.432Z,17.90
2019-04-20T15:00:05.498Z,17.00
2019-04-20T15:02:35.905Z,18.10
2019-04-20T15:05:07.324Z,17.00
2019-04-20T15:07:38.523Z,18.30
2019-04-20T15:10:09.029Z,16.60
2019-04-20T15:12:47.382Z,17.20
2019-04-20T15:15:10.543Z,16.60
2019-04-20T15:17:45.830Z,16.50
2019-04-20T15:20:25.736Z,16.30
2019-04-20T15:22:59.199Z,17.00
2019-04-20T15:25:29.695Z,16.20
2019-04-20T15:28:00.460Z,16.90
2019-04-20T15:30:29.994Z,16.60
2019-04-20T15:33:00.983Z,17.80
2019-04-20T15:35:30.736Z,18.00
2019-04-20T15:37:59.998Z,17.00
2019-04-20T15:40:29.194Z,18.50
2019-04-20T15:43:06.453Z,17.90
2019-04-20T15:45:29.575Z,18.50
2019-04-20T15:47:59.553Z,18.20
2019-04-20T15:50:29.795Z,17.10
2019-04-20T15:53:00.803Z,17.70
2019-04-20T15:55:35.584Z,19.30
2019-04-20T15:58:04.606Z,18.40
2019-04-20T16:00:34.143Z,18.60
2019-04-20T16:03:17.240Z,18.40
2019-04-20T16:05:53.902Z,18.20
2019-04-20T16:08:39.849Z,18.70
2019-04-20T16:11:09.342Z,18.70
2019-04-20T16:13:45.810Z,19.10
2019-04-20T16:16:12.305Z,17.80
2019-04-20T16:18:43.258Z,18.10
2019-04-20T16:21:18.259Z,17.50
2019-04-20T16:24:06.679Z,16.70
2019-04-20T16:27:05.388Z,15.80
2019-04-20T16:29:35.605Z,16.80
2019-04-20T16:32:05.081Z,17.80
2019-04-20T16:34:36.700Z,17.90
2019-04-20T16:37:06.416Z,18.40
2019-04-20T16:39:36.589Z,19.00
2019-04-20T16:42:08.849Z,18.90
2019-04-20T16:44:38.945Z,19.00
2019-04-20T16:47:08.289Z,19.10
2019-04-20T16:49:38.952Z,19.40
2019-04-20T16:52:08.368Z,19.10
2019-04-20T16:54:37.695Z,19.90
2019-04-20T16:57:10.620Z,20.10
2019-04-20T16:59:42.344Z,20.00
2019-04-20T17:02:12.941Z,20.10
2019-04-20T17:04:41.457Z,19.90
2019-04-20T17:07:39.267Z,19.50
2019-04-20T17:10:10.237Z,19.40
2019-04-20T17:12:40.149Z,19.90
2019-04-20T17:15:11.748Z,20.30
2019-04-20T17:17:41.040Z,21.10
2019-04-20T17:20:11.588Z,20.60
2019-04-20T17:22:42.001Z,20.80
2019-04-20T17:25:12.355Z,20.80
2019-04-20T17:27:59.632Z,21.50
2019-04-20T17:30:54.955Z,21.30
2019-04-20T17:33:49.574Z,21.30
2019-04-20T17:36:19.035Z,21.10
2019-04-20T17:38:48.456Z,21.40
2019-04-20T17:41:39.103Z,21.60
2019-04-20T17:44:08.591Z,22.00
2019-04-20T17:46:46.719Z,21.80
2019-04-20T17:49:21.042Z,22.30
2019-04-20T17:52:02.461Z,21.60
2019-04-20T17:54:27.201Z,22.00
2019-04-20T17:56:58.120Z,22.20
2019-04-20T17:59:28.386Z,24.10
2019-04-20T18:02:42.557Z,25.70
2019-04-20T18:05:24.140Z,27.10
2019-04-20T18:07:49.804Z,27.70
2019-04-20T18:10:23.067Z,29.30
2019-04-20T18:12:42.240Z,28.60
2019-04-20T18:15:29.562Z,28.80
2019-04-20T18:18:18.736Z,33.20
2019-04-20T18:20:52.536Z,31.60
2019-04-20T18:23:28.092Z,31.60
2019-04-20T18:26:11.026Z,32.30
2019-04-20T18:28:47.056Z,31.50
2019-04-20T18:31:17.565Z,32.10
2019-04-20T18:33:48.507Z,33.30
2019-04-20T18:36:23.652Z,32.80
2019-04-20T18:38:57.374Z,33.70
2019-04-20T18:41:31.947Z,33.70
2019-04-20T18:43:55.910Z,33.90
2019-04-20T18:46:39.299Z,33.90
2019-04-20T18:49:09.971Z,34.70
2019-04-20T18:51:25.957Z,34.40
2019-04-20T18:54:00.593Z,34.80
2019-04-20T18:56:32.745Z,34.80
2019-04-20T18:58:58.952Z,34.70
2019-04-20T19:01:31.950Z,34.70
2019-04-20T19:03:59.736Z,35.30
2019-04-20T19:06:29.930Z,35.20
2019-04-20T19:09:00.739Z,35.20
2019-04-20T19:11:30.906Z,35.60
2019-04-20T19:14:28.535Z,35.10
2019-04-20T19:17:04.633Z,34.50
2019-04-20T19:19:37.527Z,35.70
2019-04-20T19:22:01.771Z,35.10
2019-04-20T19:24:36.049Z,36.50
2019-04-20T19:27:06.691Z,36.40
2019-04-20T19:29:41.461Z,37.50
2019-04-20T19:32:21.137Z,36.80
2019-04-20T19:34:46.231Z,37.50
2019-04-20T19:37:17.149Z,36.00
2019-04-20T19:39:53.166Z,36.90
2019-04-20T19:42:27.413Z,37.60
2019-04-20T19:44:53.787Z,37.90
2019-04-20T19:47:35.093Z,38.20
2019-04-20T19:49:56.113Z,37.80
2019-04-20T19:52:36.758Z,38.60
2019-04-20T19:55:05.652Z,39.20
2019-04-20T19:57:37.224Z,39.20
2019-04-20T19:59:52.671Z,39.90
2019-04-20T20:02:18.512Z,40.00
2019-04-20T20:04:51.781Z,40.50
2019-04-20T20:07:26.778Z,41.30
2019-04-20T20:09:56.616Z,40.90
2019-04-20T20:12:21.402Z,40.30
2019-04-20T20:14:51.409Z,42.20
2019-04-20T20:17:44.398Z,41.40
2019-04-20T20:20:21.541Z,41.90
2019-04-20T20:22:32.351Z,41.40
2019-04-20T20:24:54.903Z,42.80
2019-04-20T20:27:35.284Z,42.50
2019-04-20T20:30:08.228Z,42.90
2019-04-20T20:32:43.700Z,43.20
2019-04-20T20:35:05.617Z,42.10
2019-04-20T20:37:34.768Z,43.10
2019-04-20T20:40:12.993Z,43.90
2019-04-20T20:42:48.691Z,44.00
2019-04-20T20:45:14.890Z,44.50
2019-04-20T20:47:53.731Z,44.50
2019-04-20T20:50:25.643Z,44.60
2019-04-20T20:52:50.848Z,44.30
2019-04-20T20:55:21.002Z,44.60
2019-04-20T20:57:52.055Z,45.50
2019-04-20T21:00:22.664Z,45.90
2019-04-20T21:02:47.142Z,46.60
2019-04-20T21:05:13.617Z,46.30
2019-04-20T21:07:43.158Z,46.20
2019-04-20T21:10:15.385Z,47.10
2019-04-20T21:12:52.042Z,46.80
2019-04-20T21:15:20.991Z,46.90
2019-04-20T21:18:08.558Z,47.40
2019-04-20T21:20:39.531Z,47.70
2019-04-20T21:23:06.980Z,47.60
2019-04-20T21:25:26.393Z,47.90
2019-04-20T21:27:56.935Z,48.60
2019-04-20T21:30:34.953Z,47.20
2019-04-20T21:33:01.783Z,47.20
2019-04-20T21:35:30.422Z,47.80
2019-04-20T21:38:05.835Z,48.60
2019-04-20T21:40:38.822Z,48.60
2019-04-20T21:43:05.593Z,49.30
2019-04-20T21:45:37.225Z,49.70
2019-04-20T21:48:09.749Z,49.70
2019-04-20T21:50:57.687Z,49.90
2019-04-20T21:53:15.487Z,49.40
2019-04-20T21:55:37.930Z,49.50
2019-04-20T21:58:08.659Z,49.70
2019-04-20T22:01:10.866Z,49.70
2019-04-20T22:03:30.003Z,49.70
2019-04-20T22:06:06.785Z,49.90
2019-04-20T22:08:39.146Z,49.90
2019-04-20T22:11:08.133Z,50.50
2019-04-20T22:13:40.274Z,50.50
2019-04-20T22:16:10.985Z,51.50
2019-04-20T22:18:48.371Z,50.40
2019-04-20T22:21:21.250Z,51.10
2019-04-20T22:23:59.771Z,50.70
2019-04-20T22:26:26.245Z,51.50
2019-04-20T22:28:44.623Z,51.80
2019-04-20T22:31:14.155Z,49.50
2019-04-20T22:33:45.440Z,49.70
2019-04-20T22:36:16.350Z,50.10
2019-04-20T22:39:05.296Z,50.90
2019-04-20T22:41:38.714Z,49.60
2019-04-20T22:44:13.611Z,51.00
2019-04-20T22:46:42.172Z,50.80
2019-04-20T22:49:29.452Z,51.40
2019-04-20T22:51:53.120Z,50.90
2019-04-20T22:54:28.075Z,51.40
2019-04-20T22:56:54.846Z,52.10
2019-04-20T22:59:19.382Z,52.20
2019-04-20T23:01:51.640Z,52.70
2019-04-20T23:04:17.014Z,54.00
2019-04-20T23:06:50.158Z,54.40
2019-04-20T23:09:18.746Z,54.20
2019-04-20T23:11:49.373Z,53.30
2019-04-20T23:14:20.296Z,53.00
2019-04-20T23:16:53.757Z,52.90
2019-04-20T23:19:32.071Z,53.10
2019-04-20T23:21:57.568Z,52.90
2019-04-20T23:24:23.708Z,52.80
2019-04-20T23:26:53.263Z,53.90
2019-04-20T23:29:27.147Z,53.90
2019-04-20T23:31:59.422Z,53.30
2019-04-20T23:34:28.446Z,53.10
2019-04-20T23:36:56.737Z,53.10
2019-04-20T23:39:30.139Z,53.30
2019-04-20T23:42:01.691Z,53.20
2019-04-20T23:45:00.384Z,53.70
2019-04-20T23:47:46.680Z,54.50
2019-04-20T23:50:35.493Z,55.10
2019-04-20T23:53:06.610Z,55.70
2019-04-20T23:55:16.944Z,55.40
2019-04-20T23:57:51.521Z,56.40
